createdAt,value
2019-04-11T00:00:33.901Z,69.83
2019-04-11T00:03:05.054Z,70.14
2019-04-11T00:05:35.147Z,69.62
2019-04-11T00:08:05.959Z,69.62
2019-04-11T00:10:37.398Z,69.05
2019-04-11T00:13:17.372Z,68.96
2019-04-11T00:15:39.052Z,68.77
2019-04-11T00:18:10.227Z,69.30
2019-04-11T00:20:40.379Z,68.80
2019-04-11T00:23:10.305Z,69.01
2019-04-11T00:25:40.284Z,70.17
2019-04-11T00:28:10.289Z,70.81
2019-04-11T00:30:40.277Z,69.58
2019-04-11T00:33:10.534Z,69.61
2019-04-11T00:35:40.380Z,69.38
2019-04-11T00:38:10.318Z,69.55
2019-04-11T00:40:41.547Z,69.64
2019-04-11T00:43:11.599Z,69.67
2019-04-11T00:45:41.506Z,69.51
2019-04-11T00:48:11.577Z,70.04
2019-04-11T00:50:41.534Z,69.28
2019-04-11T00:53:11.910Z,68.93
2019-04-11T00:55:41.957Z,69.96
2019-04-11T00:58:11.947Z,69.02
2019-04-11T01:00:42.996Z,69.41
2019-04-11T01:03:13.811Z,68.66
2019-04-11T01:05:43.873Z,69.36
2019-04-11T01:08:13.993Z,69.42
2019-04-11T01:10:43.909Z,69.02
2019-04-11T01:13:14.287Z,69.11
2019-04-11T01:15:52.964Z,68.79
2019-04-11T01:18:22.808Z,70.39
2019-04-11T01:20:53.687Z,70.11
2019-04-11T01:23:23.798Z,68.32
2019-04-11T01:25:54.993Z,69.26
2019-04-11T01:28:24.962Z,69.10
2019-04-11T01:31:05.223Z,68.90
2019-04-11T01:33:35.919Z,69.58
2019-04-11T01:36:06.936Z,69.02
2019-04-11T01:38:42.197Z,68.93
2019-04-11T01:41:12.223Z,68.99
2019-04-11T01:43:52.586Z,68.33
2019-04-11T01:46:14.093Z,67.84
2019-04-11T01:48:55.605Z,67.54
2019-04-11T01:51:25.722Z,67.30
2019-04-11T01:53:55.718Z,67.26
2019-04-11T01:56:27.357Z,67.87
2019-04-11T01:58:57.414Z,67.01
2019-04-11T02:01:32.620Z,68.12
2019-04-11T02:04:14.424Z,67.18
2019-04-11T02:06:44.471Z,67.19
2019-04-11T02:09:15.879Z,68.09
2019-04-11T02:11:45.892Z,67.94
2019-04-11T02:14:19.254Z,67.78
2019-04-11T02:16:49.606Z,67.01
2019-04-11T02:19:20.418Z,68.01
2019-04-11T02:21:52.283Z,67.96
2019-04-11T02:24:42.022Z,68.20
2019-04-11T02:27:24.800Z,67.23
2019-04-11T02:29:55.990Z,67.84
2019-04-11T02:32:28.654Z,69.36
2019-04-11T02:34:59.315Z,68.35
2019-04-11T02:37:31.764Z,68.51
2019-04-11T02:40:03.236Z,68.06
2019-04-11T02:42:35.107Z,66.87
2019-04-11T02:45:19.878Z,66.02
2019-04-11T02:47:40.022Z,66.37
2019-04-11T02:50:12.418Z,67.17
2019-04-11T02:52:42.283Z,64.95
2019-04-11T02:55:14.451Z,65.55
2019-04-11T02:57:45.945Z,66.32
2019-04-11T03:00:18.023Z,65.11
2019-04-11T03:02:50.258Z,64.47
2019-04-11T03:05:20.818Z,63.79
2019-04-11T03:07:51.850Z,64.30
2019-04-11T03:10:21.839Z,63.60
2019-04-11T03:12:52.679Z,63.68
2019-04-11T03:15:37.544Z,62.61
2019-04-11T03:17:59.571Z,63.34
2019-04-11T03:20:34.434Z,62.85
2019-04-11T03:23:04.502Z,61.63
2019-04-11T03:25:31.154Z,62.14
2019-04-11T03:28:02.176Z,61.66
2019-04-11T03:30:49.437Z,60.94
2019-04-11T03:38:31.687Z,60.96
2019-04-11T03:40:57.018Z,59.93
2019-04-11T03:43:27.708Z,60.55
2019-04-11T03:46:06.698Z,60.19
2019-04-11T03:48:33.296Z,59.28
2019-04-11T03:50:52.479Z,60.13
2019-04-11T03:53:26.477Z,60.58
2019-04-11T03:55:53.908Z,61.01
2019-04-11T03:58:25.789Z,59.76
2019-04-11T04:00:59.308Z,59.87
2019-04-11T04:03:29.500Z,59.00
2019-04-11T04:06:01.876Z,59.53
2019-04-11T04:08:34.125Z,59.13
2019-04-11T04:11:25.344Z,60.38
2019-04-11T04:14:08.171Z,59.03
2019-04-11T04:16:48.661Z,59.30
2019-04-11T04:19:32.549Z,59.29
2019-04-11T04:22:07.380Z,60.27
2019-04-11T04:24:41.337Z,59.45
2019-04-11T04:27:10.283Z,58.87
2019-04-11T04:29:43.951Z,60.10
2019-04-11T04:32:14.474Z,59.25
2019-04-11T04:34:46.416Z,59.40
2019-04-11T04:37:21.413Z,59.63
2019-04-11T04:40:03.379Z,59.10
2019-04-11T04:42:31.057Z,59.73
2019-04-11T04:44:55.820Z,59.19
2019-04-11T04:47:37.273Z,59.75
2019-04-11T04:49:59.350Z,59.02
2019-04-11T04:52:30.376Z,59.20
2019-04-11T04:55:02.149Z,59.57
2019-04-11T04:57:33.934Z,58.20
2019-04-11T05:00:06.865Z,58.75
2019-04-11T05:02:37.349Z,58.27
2019-04-11T05:05:09.497Z,58.92
2019-04-11T05:07:42.356Z,58.01
2019-04-11T05:10:13.302Z,57.91
2019-04-11T05:12:43.904Z,58.59
2019-04-11T05:15:14.543Z,57.65
2019-04-11T05:17:46.116Z,58.76
2019-04-11T05:20:17.614Z,59.10
2019-04-11T05:22:47.588Z,58.26
2019-04-11T05:25:18.229Z,57.23
2019-04-11T05:27:48.295Z,58.59
2019-04-11T05:30:18.777Z,59.04
2019-04-11T05:32:49.347Z,57.39
2019-04-11T05:35:19.230Z,57.73
2019-04-11T05:37:49.139Z,57.99
2019-04-11T05:40:19.053Z,57.47
2019-04-11T05:42:53.464Z,58.51
2019-04-11T05:45:24.409Z,59.15
2019-04-11T05:47:55.544Z,58.84
2019-04-11T05:50:34.048Z,58.12
2019-04-11T05:53:05.546Z,57.91
2019-04-11T05:55:41.431Z,57.50
2019-04-11T05:58:13.766Z,57.87
2019-04-11T06:01:01.238Z,57.91
2019-04-11T06:03:32.345Z,56.18
2019-04-11T06:06:21.398Z,57.48
2019-04-11T06:08:54.212Z,56.87
2019-04-11T06:11:29.178Z,56.98
2019-04-11T06:14:20.900Z,56.85
2019-04-11T06:16:55.697Z,56.81
2019-04-11T06:19:43.782Z,58.45
2019-04-11T06:22:14.882Z,58.10
2019-04-11T06:25:06.019Z,58.26
2019-04-11T06:27:55.708Z,58.85
2019-04-11T06:31:04.584Z,59.00
2019-04-11T06:33:42.781Z,57.72
2019-04-11T06:36:41.270Z,58.24
2019-04-11T06:39:29.469Z,57.66
2019-04-11T06:42:17.381Z,58.03
2019-04-11T06:44:59.651Z,55.68
2019-04-11T06:47:49.230Z,56.38
2019-04-11T06:50:25.099Z,56.09
2019-04-11T06:52:56.218Z,56.34
2019-04-11T06:55:49.630Z,56.79
2019-04-11T06:58:23.535Z,56.89
2019-04-11T07:00:58.574Z,55.66
2019-04-11T07:03:32.478Z,54.62
2019-04-11T07:06:09.171Z,54.27
2019-04-11T07:08:49.048Z,55.36
2019-04-11T07:11:21.527Z,54.66
2019-04-11T07:14:01.913Z,55.45
2019-04-11T07:16:31.960Z,55.59
2019-04-11T07:19:23.908Z,56.12
2019-04-11T07:21:54.124Z,55.32
2019-04-11T07:25:01.967Z,53.99
2019-04-11T07:27:32.293Z,55.27
2019-04-11T07:30:22.751Z,54.79
2019-04-11T07:32:56.266Z,55.76
2019-04-11T07:35:59.717Z,55.69
2019-04-11T07:38:37.030Z,55.87
2019-04-11T07:41:27.395Z,55.90
2019-04-11T07:43:58.343Z,56.54
2019-04-11T07:46:43.947Z,57.71
2019-04-11T07:49:15.648Z,58.32
2019-04-11T07:51:56.142Z,57.81
2019-04-11T07:54:27.970Z,57.22
2019-04-11T07:57:20.174Z,56.50
2019-04-11T08:00:17.971Z,56.41
2019-04-11T08:03:10.018Z,57.43
2019-04-11T08:05:50.837Z,60.11
2019-04-11T08:08:39.030Z,60.78
2019-04-11T08:11:27.461Z,62.98
2019-04-11T08:14:22.722Z,64.14
2019-04-11T08:17:12.370Z,64.92
2019-04-11T08:19:59.906Z,65.99
2019-04-11T08:22:35.050Z,66.43
2019-04-11T08:25:25.098Z,66.10
2019-04-11T08:28:06.113Z,66.59
2019-04-11T08:30:51.996Z,66.21
2019-04-11T08:33:22.485Z,66.97
2019-04-11T08:36:24.104Z,65.62
2019-04-11T08:38:54.116Z,65.50
2019-04-11T08:41:49.630Z,65.05
2019-04-11T08:44:23.821Z,64.83
2019-04-11T08:46:58.115Z,66.69
2019-04-11T08:49:41.753Z,64.55
2019-04-11T08:52:18.014Z,63.11
2019-04-11T08:55:10.389Z,63.07
2019-04-11T08:57:42.951Z,61.61
2019-04-11T09:00:42.745Z,61.78
2019-04-11T09:04:04.131Z,59.53
2019-04-11T09:06:30.732Z,59.87
2019-04-11T09:09:38.107Z,58.96
2019-04-11T09:12:11.995Z,58.80
2019-04-11T09:15:00.263Z,57.18
2019-04-11T09:17:34.458Z,58.02
2019-04-11T09:20:29.949Z,57.44
2019-04-11T09:23:01.795Z,57.45
2019-04-11T09:25:51.670Z,56.27
2019-04-11T09:28:41.710Z,55.76
2019-04-11T09:31:43.991Z,55.60
2019-04-11T09:34:30.337Z,54.80
2019-04-11T09:37:12.365Z,54.70
2019-04-11T09:40:03.796Z,53.88
2019-04-11T09:42:59.634Z,53.54
2019-04-11T09:45:48.738Z,52.89
2019-04-11T09:48:44.148Z,52.30
2019-04-11T09:51:40.289Z,51.77
2019-04-11T09:54:48.463Z,51.39
2019-04-11T09:57:52.857Z,51.84
2019-04-11T10:00:41.062Z,52.59
2019-04-11T10:03:17.542Z,52.62
2019-04-11T10:05:56.716Z,52.44
2019-04-11T10:08:35.260Z,52.84
2019-04-11T10:11:24.133Z,53.70
2019-04-11T10:14:17.642Z,54.32
2019-04-11T10:17:06.536Z,52.31
2019-04-11T10:19:46.462Z,51.10
2019-04-11T10:22:34.142Z,51.89
2019-04-11T10:25:19.124Z,52.25
2019-04-11T10:28:07.088Z,49.69
2019-04-11T10:31:12.491Z,50.70
2019-04-11T10:34:19.649Z,49.84
2019-04-11T10:37:05.320Z,50.36
2019-04-11T10:39:54.541Z,51.81
2019-04-11T10:42:26.630Z,50.30
2019-04-11T10:45:18.588Z,49.19
2019-04-11T10:47:49.717Z,48.79
2019-04-11T10:50:36.263Z,48.59
2019-04-11T10:53:06.851Z,49.97
2019-04-11T10:56:08.461Z,49.75
2019-04-11T10:58:59.753Z,49.50
2019-04-11T11:01:48.490Z,49.90
2019-04-11T11:04:25.585Z,47.69
2019-04-11T11:06:58.648Z,48.52
2019-04-11T11:09:56.867Z,47.05
2019-04-11T11:12:45.485Z,48.69
2019-04-11T11:15:27.576Z,47.09
2019-04-11T11:18:53.909Z,49.38
2019-04-11T11:21:02.601Z,46.88
2019-04-11T11:23:50.759Z,48.41
2019-04-11T11:26:33.778Z,50.33
2019-04-11T11:29:41.178Z,48.96
2019-04-11T11:32:29.501Z,47.18
2019-04-11T11:35:15.187Z,47.91
2019-04-11T11:37:57.453Z,48.13
2019-04-11T11:40:45.257Z,47.08
2019-04-11T11:43:35.043Z,47.64
2019-04-11T11:46:26.723Z,49.44
2019-04-11T11:49:02.395Z,50.31
2019-04-11T11:51:37.501Z,49.69
2019-04-11T11:54:13.741Z,49.46
2019-04-11T11:56:44.472Z,47.97
2019-04-11T12:17:10.809Z,51.33
2019-04-11T12:19:52.910Z,52.12
2019-04-11T12:22:18.092Z,52.11
2019-04-11T12:24:52.478Z,52.28
2019-04-11T12:27:41.453Z,51.93
2019-04-11T12:30:31.292Z,50.50
2019-04-11T12:33:23.511Z,50.84
2019-04-11T12:36:08.243Z,49.68
2019-04-11T12:38:57.091Z,49.46
2019-04-11T12:41:35.581Z,50.21
2019-04-11T12:44:30.756Z,49.45
2019-04-11T12:47:38.605Z,51.67
2019-04-11T12:50:28.941Z,50.26
2019-04-11T12:53:10.742Z,50.37
2019-04-11T12:55:58.398Z,50.09
2019-04-11T12:58:31.147Z,49.29
2019-04-11T13:01:32.338Z,49.55
2019-04-11T13:04:23.515Z,50.91
2019-04-11T13:07:18.820Z,51.45
2019-04-11T13:09:53.863Z,51.89
2019-04-11T13:12:39.163Z,53.50
2019-04-11T13:15:20.716Z,52.85
2019-04-11T13:18:01.294Z,52.16
2019-04-11T13:20:56.190Z,52.20
2019-04-11T13:23:45.042Z,52.37
2019-04-11T13:26:39.803Z,51.16
2019-04-11T13:29:24.330Z,52.73
2019-04-11T13:32:12.185Z,52.25
2019-04-11T13:34:43.166Z,52.16
2019-04-11T13:37:32.093Z,53.08
2019-04-11T13:40:33.230Z,53.01
2019-04-11T13:43:20.841Z,52.28
2019-04-11T13:46:08.964Z,51.77
2019-04-11T13:48:57.493Z,51.91
2019-04-11T13:51:55.568Z,51.23
2019-04-11T13:54:53.631Z,50.65
2019-04-11T13:57:57.993Z,50.51
2019-04-11T14:00:46.523Z,49.65
2019-04-11T14:03:47.849Z,50.90
2019-04-11T14:06:20.901Z,50.84
2019-04-11T14:08:59.347Z,51.78
2019-04-11T14:11:33.746Z,51.26
2019-04-11T14:14:13.019Z,52.33
2019-04-11T14:16:52.647Z,53.13
2019-04-11T14:19:56.701Z,51.83
2019-04-11T14:22:31.120Z,51.50
2019-04-11T14:25:18.756Z,51.43
2019-04-11T14:27:50.400Z,50.31
2019-04-11T14:30:35.757Z,52.02
2019-04-11T14:33:06.845Z,51.59
2019-04-11T14:35:58.912Z,51.32
2019-04-11T14:38:32.037Z,51.88
2019-04-11T14:41:41.505Z,51.69
2019-04-11T14:44:09.528Z,51.37
2019-04-11T14:46:50.302Z,51.28
2019-04-11T14:49:20.425Z,51.69
2019-04-11T14:52:16.995Z,52.40
2019-04-11T14:54:49.204Z,51.82
2019-04-11T14:57:55.762Z,52.19
2019-04-11T15:00:44.069Z,52.11
2019-04-11T15:03:33.005Z,51.46
2019-04-11T15:06:20.437Z,51.42
2019-04-11T15:09:07.916Z,51.57
2019-04-11T15:11:49.632Z,52.57
2019-04-11T15:14:37.165Z,51.67
2019-04-11T15:17:12.801Z,50.53
2019-04-11T15:19:45.898Z,50.74
2019-04-11T15:22:35.716Z,50.97
2019-04-11T15:25:12.562Z,52.31
2019-04-11T15:28:00.173Z,51.75
2019-04-11T15:30:30.936Z,52.52
2019-04-11T15:33:35.511Z,51.55
2019-04-11T15:36:07.515Z,51.53
2019-04-11T15:39:06.729Z,51.90
2019-04-11T15:41:38.394Z,52.96
2019-04-11T15:44:27.154Z,53.58
2019-04-11T15:47:00.709Z,53.32
2019-04-11T15:49:48.301Z,52.93
2019-04-11T15:52:21.235Z,53.55
2019-04-11T15:55:08.850Z,52.52
2019-04-11T15:57:45.872Z,53.54
2019-04-11T16:00:44.449Z,53.62
2019-04-11T16:03:24.603Z,54.13
2019-04-11T16:06:12.825Z,54.56
2019-04-11T16:08:47.880Z,54.47
2019-04-11T16:11:42.817Z,54.34
2019-04-11T16:14:29.676Z,54.25
2019-04-11T16:17:16.894Z,54.46
2019-04-11T16:19:51.642Z,54.77
2019-04-11T16:22:39.374Z,54.44
2019-04-11T16:25:11.735Z,54.82
2019-04-11T16:28:07.901Z,54.37
2019-04-11T16:30:40.513Z,54.82
2019-04-11T16:33:17.315Z,55.19
2019-04-11T16:35:57.255Z,54.45
2019-04-11T16:38:28.904Z,54.90
2019-04-11T16:41:16.437Z,54.68
2019-04-11T16:43:49.422Z,55.29
2019-04-11T16:46:37.079Z,55.44
2019-04-11T16:49:06.986Z,55.40
2019-04-11T16:51:36.837Z,55.42
2019-04-11T16:54:09.544Z,55.82
2019-04-11T16:56:38.361Z,55.57
2019-04-11T16:59:08.290Z,55.46
2019-04-11T17:01:38.226Z,55.52
2019-04-11T17:04:08.842Z,55.44
2019-04-11T17:06:57.682Z,55.31
2019-04-11T17:09:46.609Z,55.96
2019-04-11T17:12:16.541Z,56.15
2019-04-11T17:14:46.538Z,56.42
2019-04-11T17:17:16.492Z,56.72
2019-04-11T17:19:46.362Z,56.17
2019-04-11T17:22:16.777Z,56.20
2019-04-11T17:24:49.855Z,56.47
2019-04-11T17:27:23.176Z,56.82
2019-04-11T17:29:55.383Z,56.80
2019-04-11T17:32:25.962Z,57.10
2019-04-11T17:34:56.384Z,58.05
2019-04-11T17:37:27.262Z,57.84
2019-04-11T17:39:57.185Z,58.27
2019-04-11T17:42:27.046Z,58.79
2019-04-11T17:44:58.116Z,58.14
2019-04-11T17:47:27.984Z,58.89
2019-04-11T17:49:59.576Z,58.53
2019-04-11T17:52:29.748Z,58.38
2019-04-11T17:55:00.696Z,58.05
2019-04-11T17:57:31.405Z,57.71
2019-04-11T18:00:01.389Z,57.61
2019-04-11T18:02:32.586Z,57.79
2019-04-11T18:05:02.653Z,57.54
2019-04-11T18:07:32.572Z,57.54
2019-04-11T18:10:02.484Z,57.16
2019-04-11T18:12:32.502Z,57.09
2019-04-11T18:15:02.973Z,57.20
2019-04-11T18:17:35.007Z,56.62
2019-04-11T18:20:06.880Z,56.93
2019-04-11T18:22:37.363Z,56.74
2019-04-11T18:25:07.756Z,56.89
2019-04-11T18:27:37.795Z,56.59
2019-04-11T18:30:10.997Z,56.81
2019-04-11T18:32:41.380Z,57.15
2019-04-11T18:35:11.381Z,57.03
2019-04-11T18:37:41.410Z,56.61
2019-04-11T18:40:11.727Z,56.04
2019-04-11T18:42:41.669Z,55.53
2019-04-11T18:45:12.096Z,55.59
2019-04-11T18:47:42.116Z,55.49
2019-04-11T18:50:12.612Z,54.99
2019-04-11T18:52:42.598Z,55.14
2019-04-11T18:55:13.130Z,54.66
2019-04-11T18:57:43.894Z,53.91
2019-04-11T19:00:16.208Z,54.65
2019-04-11T19:02:46.511Z,53.66
2019-04-11T19:05:28.249Z,53.93
2019-04-11T19:07:49.105Z,53.62
2019-04-11T19:10:19.113Z,53.95
2019-04-11T19:12:49.101Z,54.00
2019-04-11T19:15:19.398Z,53.90
2019-04-11T19:17:49.416Z,53.30
2019-04-11T19:20:19.785Z,54.17
2019-04-11T19:22:49.890Z,53.44
2019-04-11T19:25:19.798Z,53.71
2019-04-11T19:27:53.302Z,53.98
2019-04-11T19:30:21.613Z,53.33
2019-04-11T19:32:53.333Z,53.60
2019-04-11T19:35:23.259Z,53.98
2019-04-11T19:37:53.122Z,53.99
2019-04-11T19:40:23.127Z,54.40
2019-04-11T19:42:53.067Z,53.78
2019-04-11T19:45:23.113Z,53.10
2019-04-11T19:47:53.123Z,53.16
2019-04-11T19:50:24.172Z,52.99
2019-04-11T19:52:53.999Z,53.53
2019-04-11T19:55:42.844Z,53.02
2019-04-11T19:58:12.892Z,53.09
2019-04-11T20:00:42.891Z,53.32
2019-04-11T20:03:12.820Z,53.21
2019-04-11T20:05:42.733Z,52.97
2019-04-11T20:08:12.694Z,52.38
2019-04-11T20:10:42.600Z,52.50
2019-04-11T20:13:12.608Z,51.95
2019-04-11T20:15:43.143Z,51.82
2019-04-11T20:18:13.099Z,51.63
2019-04-11T20:20:43.011Z,51.79
2019-04-11T20:23:12.902Z,51.19
2019-04-11T20:25:45.734Z,51.22
2019-04-11T20:28:14.400Z,51.96
2019-04-11T20:30:44.837Z,51.75
2019-04-11T20:33:26.371Z,51.35
2019-04-11T20:35:46.401Z,51.32
2019-04-11T20:38:16.782Z,52.05
2019-04-11T20:40:46.691Z,51.21
2019-04-11T20:43:16.685Z,51.55
2019-04-11T20:45:46.657Z,51.50
2019-04-11T20:48:16.561Z,51.87
2019-04-11T20:50:46.517Z,51.76
2019-04-11T20:53:16.570Z,52.59
2019-04-11T20:55:47.672Z,51.72
2019-04-11T20:58:27.118Z,52.03
2019-04-11T21:00:55.424Z,51.66
2019-04-11T21:03:22.113Z,51.68
2019-04-11T21:05:52.066Z,51.26
2019-04-11T21:08:21.917Z,52.23
2019-04-11T21:10:52.012Z,52.21
2019-04-11T21:13:21.946Z,51.74
2019-04-11T21:15:51.932Z,52.07
2019-04-11T21:18:25.637Z,52.76
2019-04-11T21:20:55.870Z,52.41
2019-04-11T21:23:29.484Z,52.59
2019-04-11T21:25:59.104Z,52.38
2019-04-11T21:28:30.309Z,52.48
2019-04-11T21:31:00.987Z,52.80
2019-04-11T21:33:34.266Z,53.15
2019-04-11T21:36:02.942Z,52.45
2019-04-11T21:38:32.895Z,52.64
2019-04-11T21:41:05.870Z,53.58
2019-04-11T21:43:36.278Z,52.18
2019-04-11T21:46:07.602Z,51.90
2019-04-11T21:48:37.578Z,52.46
2019-04-11T21:51:11.067Z,52.97
2019-04-11T21:53:39.138Z,52.81
2019-04-11T21:56:09.133Z,52.77
2019-04-11T21:58:39.248Z,57.17
2019-04-11T22:01:12.540Z,54.04
2019-04-11T22:03:45.413Z,52.62
2019-04-11T22:06:15.422Z,50.66
2019-04-11T22:08:45.798Z,52.64
2019-04-11T22:11:15.744Z,52.38
2019-04-11T22:13:45.889Z,51.52
2019-04-11T22:16:17.087Z,50.63
2019-04-11T22:18:47.099Z,50.17
2019-04-11T22:21:19.204Z,50.04
2019-04-11T22:23:49.310Z,49.72
2019-04-11T22:26:19.115Z,49.24
2019-04-11T22:28:48.952Z,49.36
2019-04-11T22:31:18.922Z,49.40
2019-04-11T22:34:00.194Z,48.39
2019-04-11T22:36:30.771Z,51.13
2019-04-11T22:39:01.582Z,48.61
2019-04-11T22:41:33.312Z,48.23
2019-04-11T22:44:03.152Z,48.61
2019-04-11T22:46:33.211Z,48.98
2019-04-11T22:49:03.207Z,48.17
2019-04-11T22:51:33.148Z,47.98
2019-04-11T22:54:03.149Z,48.64
2019-04-11T22:56:33.058Z,48.98
2019-04-11T22:59:03.001Z,48.79
2019-04-11T23:01:35.892Z,48.69
2019-04-11T23:04:06.153Z,49.38
2019-04-11T23:06:36.076Z,49.29
2019-04-11T23:09:07.764Z,49.52
2019-04-11T23:11:38.640Z,49.29
2019-04-11T23:14:08.592Z,49.52
2019-04-11T23:16:38.622Z,49.38
2019-04-11T23:19:08.536Z,49.64
2019-04-11T23:21:38.541Z,49.31
2019-04-11T23:24:12.031Z,49.57
2019-04-11T23:26:40.254Z,50.37
2019-04-11T23:29:10.101Z,49.69
2019-04-11T23:31:39.947Z,50.03
2019-04-11T23:34:09.858Z,49.79
2019-04-11T23:36:39.734Z,50.10
2019-04-11T23:39:09.615Z,50.20
2019-04-11T23:41:39.617Z,50.45
2019-04-11T23:44:09.581Z,50.40
2019-04-11T23:46:39.487Z,50.21
2019-04-11T23:49:09.407Z,50.63
2019-04-11T23:51:39.402Z,51.34
2019-04-11T23:54:09.370Z,52.23
2019-04-11T23:56:39.212Z,51.62
2019-04-11T23:59:09.350Z,52.24
